Time;durP1;ratioP1;P1;durP2;ratioP2;P2;SDS_P1;SDS_P2;PMS_P1;PMS_P2;Temp;Humidity;BMP_temperature;BMP_pressure;BME280_temperature;BME280_humidity;BME280_pressure;Samples;Min_cycle;Max_cycle;Signal;HPM_P1;HPM_P2
2022/03/02 00:01:52;;;;;;;31.45;19.13;;;;;;;-144.47;100.00;61586.06;5020656;28;20041;-76
2022/03/02 00:04:19;;;;;;;33.40;19.95;;;;;;;-144.47;100.00;61586.06;5024063;28;20288;-76
2022/03/02 00:06:46;;;;;;;29.98;19.05;;;;;;;-144.47;100.00;61586.06;5020233;28;20116;-76
2022/03/02 00:09:12;;;;;;;32.05;19.63;;;;;;;-144.47;100.00;61586.06;5024091;28;20500;-76
2022/03/02 00:11:38;;;;;;;36.35;19.90;;;;;;;-144.47;100.00;61586.06;5021022;28;20034;-76
2022/03/02 00:14:05;;;;;;;38.20;20.45;;;;;;;-144.47;100.00;61586.06;5023186;28;20049;-76
2022/03/02 00:16:32;;;;;;;37.08;21.20;;;;;;;-144.47;100.00;61586.06;5021628;28;20037;-76
2022/03/02 00:18:59;;;;;;;36.03;20.25;;;;;;;-144.47;100.00;61586.06;5021109;28;20482;-75
2022/03/02 00:21:25;;;;;;;34.40;19.95;;;;;;;-144.47;100.00;61586.06;5021766;28;20029;-75
2022/03/02 00:23:50;;;;;;;37.20;21.75;;;;;;;-144.47;100.00;61586.06;5018452;28;20041;-75
2022/03/02 00:26:16;;;;;;;33.88;19.45;;;;;;;-144.47;100.00;61586.06;5023352;28;20109;-76
2022/03/02 00:28:42;;;;;;;34.25;19.60;;;;;;;-144.47;100.00;61586.06;5019845;28;20100;-78
2022/03/02 00:31:08;;;;;;;35.45;20.02;;;;;;;-144.47;100.00;61586.06;5022092;28;20351;-77
2022/03/02 00:33:34;;;;;;;34.55;20.45;;;;;;;-144.47;100.00;61586.06;5020938;28;20425;-74
2022/03/02 00:35:59;;;;;;;32.13;19.73;;;;;;;-144.47;100.00;61586.06;5020815;28;20034;-76
2022/03/02 00:38:25;;;;;;;33.05;19.70;;;;;;;-144.47;100.00;61586.06;5021953;28;20478;-76
2022/03/02 00:40:50;;;;;;;34.65;19.70;;;;;;;-144.47;100.00;61586.06;5019633;28;20047;-77
2022/03/02 00:43:16;;;;;;;34.17;19.33;;;;;;;-144.47;100.00;61586.06;5021783;28;20065;-76
2022/03/02 00:45:43;;;;;;;35.47;20.35;;;;;;;-144.47;100.00;61586.06;5021251;28;20026;-75
2022/03/02 00:48:09;;;;;;;32.40;19.83;;;;;;;-144.47;100.00;61586.06;5020410;28;20045;-76
2022/03/02 00:50:36;;;;;;;30.90;19.45;;;;;;;-144.47;100.00;61586.06;5020296;28;20037;-75
2022/03/02 00:53:05;;;;;;;31.63;18.67;;;;;;;-144.47;100.00;61586.06;5019438;28;20135;-76
2022/03/02 00:55:33;;;;;;;30.38;19.40;;;;;;;-144.47;100.00;61586.06;5020945;28;20025;-76
2022/03/02 00:57:59;;;;;;;31.15;19.58;;;;;;;-144.47;100.00;61586.06;5023104;28;20037;-76
2022/03/02 01:00:24;;;;;;;32.65;19.38;;;;;;;-144.47;100.00;61586.06;5023353;28;20033;-76
2022/03/02 01:02:50;;;;;;;31.35;18.70;;;;;;;-144.47;100.00;61586.06;5019381;28;20117;-76
2022/03/02 01:05:16;;;;;;;29.38;19.23;;;;;;;-144.47;100.00;61586.06;5022488;28;20101;-75
2022/03/02 01:07:42;;;;;;;31.30;19.58;;;;;;;-144.47;100.00;61586.06;5019191;28;20358;-76
2022/03/02 01:10:08;;;;;;;32.05;18.92;;;;;;;-144.47;100.00;61586.06;5022339;28;20167;-76
2022/03/02 01:12:34;;;;;;;32.40;19.67;;;;;;;-144.47;100.00;61586.06;5023870;28;20118;-76
2022/03/02 01:15:01;;;;;;;35.42;19.70;;;;;;;-144.47;100.00;61586.06;5022448;28;20125;-77
2022/03/02 01:17:26;;;;;;;37.33;20.70;;;;;;;-144.47;100.00;61586.06;5021106;28;20033;-75
2022/03/02 01:19:52;;;;;;;34.88;18.83;;;;;;;-144.47;100.00;61586.06;5019296;28;20376;-75
2022/03/02 01:22:19;;;;;;;33.50;20.20;;;;;;;-144.47;100.00;61586.06;5021146;28;20361;-75
2022/03/02 01:24:45;;;;;;;28.90;19.00;;;;;;;-144.47;100.00;61586.06;5018755;28;20033;-75
2022/03/02 01:27:10;;;;;;;32.70;19.98;;;;;;;-144.47;100.00;61586.06;5021724;28;20048;-77
2022/03/02 01:29:36;;;;;;;31.65;19.38;;;;;;;-144.47;100.00;61586.06;5019217;28;20034;-76
2022/03/02 01:32:05;;;;;;;35.63;20.67;;;;;;;-144.47;100.00;61586.06;5020349;28;20466;-75
2022/03/02 01:34:31;;;;;;;36.40;22.20;;;;;;;-144.47;100.00;61586.06;5019231;28;20486;-75
2022/03/02 01:36:56;;;;;;;33.72;21.15;;;;;;;-144.47;100.00;61586.06;5020228;28;20045;-75
2022/03/02 01:39:22;;;;;;;33.85;19.88;;;;;;;-144.47;100.00;61586.06;5045033;28;20026;-76
2022/03/02 01:41:48;;;;;;;33.72;19.65;;;;;;;-144.47;100.00;61586.06;5028572;28;20137;-76
2022/03/02 01:44:14;;;;;;;35.35;19.73;;;;;;;-144.47;100.00;61586.06;5034953;28;20684;-75
2022/03/02 01:46:39;;;;;;;39.85;21.45;;;;;;;-144.47;100.00;61586.06;5026596;28;20058;-76
2022/03/02 01:49:06;;;;;;;36.15;20.90;;;;;;;-144.47;100.00;61586.06;5020542;28;20067;-75
2022/03/02 01:51:32;;;;;;;39.22;21.38;;;;;;;-144.47;100.00;61586.06;5020865;28;20053;-76
2022/03/02 01:53:57;;;;;;;33.17;20.15;;;;;;;-144.47;100.00;61586.06;5019122;28;20052;-77
2022/03/02 01:56:23;;;;;;;32.85;20.17;;;;;;;-144.47;100.00;61586.06;5015961;28;20049;-76
2022/03/02 01:58:49;;;;;;;38.47;21.05;;;;;;;-144.47;100.00;61586.06;5020851;28;20107;-76
2022/03/02 02:01:16;;;;;;;29.63;18.90;;;;;;;-144.47;100.00;61586.06;5019226;28;20069;-77
2022/03/02 02:03:42;;;;;;;31.90;19.95;;;;;;;-144.47;100.00;61586.06;5022311;28;20034;-77
2022/03/02 02:06:08;;;;;;;31.17;19.85;;;;;;;-144.47;100.00;61586.06;5019020;28;20068;-76
2022/03/02 02:08:34;;;;;;;30.98;20.23;;;;;;;-144.47;100.00;61586.06;5021059;28;20458;-77
2022/03/02 02:11:01;;;;;;;33.38;19.98;;;;;;;-144.47;100.00;61586.06;5035456;28;20397;-77
2022/03/02 02:13:30;;;;;;;31.00;20.20;;;;;;;-144.47;100.00;61586.06;5018627;28;20400;-75
2022/03/02 02:15:56;;;;;;;35.35;20.35;;;;;;;-144.47;100.00;61586.06;5021327;28;20441;-77
2022/03/02 02:18:21;;;;;;;34.40;19.77;;;;;;;-144.47;100.00;61586.06;5021364;28;20030;-75
2022/03/02 02:20:47;;;;;;;34.92;20.30;;;;;;;-144.47;100.00;61586.06;5018387;28;20143;-76
2022/03/02 02:23:13;;;;;;;34.03;19.75;;;;;;;-144.47;100.00;61586.06;5018143;28;20362;-76
2022/03/02 02:25:39;;;;;;;35.05;20.23;;;;;;;-144.47;100.00;61586.06;5020162;28;20366;-75
2022/03/02 02:28:07;;;;;;;32.00;18.88;;;;;;;-144.47;100.00;61586.06;5018086;28;20037;-75
2022/03/02 02:30:33;;;;;;;31.88;20.05;;;;;;;-144.47;100.00;61586.06;5020273;28;20100;-76
2022/03/02 02:32:58;;;;;;;35.28;20.60;;;;;;;-144.47;100.00;61586.06;5019930;28;20072;-76
2022/03/02 02:35:27;;;;;;;30.80;20.25;;;;;;;-144.47;100.00;61586.06;5019101;28;20022;-75
2022/03/02 02:37:54;;;;;;;31.10;19.58;;;;;;;-144.47;100.00;61586.06;5020005;28;20034;-75
2022/03/02 02:40:21;;;;;;;32.72;19.00;;;;;;;-144.47;100.00;61586.06;5018045;28;20029;-76
2022/03/02 02:42:48;;;;;;;29.67;19.13;;;;;;;-144.47;100.00;61586.06;5019649;28;20060;-76
2022/03/02 02:45:17;;;;;;;28.33;19.38;;;;;;;-144.47;100.00;61586.06;5046547;28;20034;-76
2022/03/02 02:47:50;;;;;;;26.30;17.40;;;;;;;-144.47;100.00;61586.06;5023037;28;20064;-76
2022/03/02 02:50:17;;;;;;;32.25;19.05;;;;;;;-144.47;100.00;61586.06;5021791;28;20394;-76
2022/03/02 02:52:43;;;;;;;32.05;20.20;;;;;;;-144.47;100.00;61586.06;5025285;28;20390;-76
2022/03/02 02:55:10;;;;;;;34.53;19.65;;;;;;;-144.47;100.00;61586.06;5022635;28;20030;-76
2022/03/02 02:57:35;;;;;;;32.05;19.42;;;;;;;-144.47;100.00;61586.06;5024113;28;20037;-74
2022/03/02 03:00:01;;;;;;;36.88;19.98;;;;;;;-144.47;100.00;61586.06;5021819;28;20056;-75
2022/03/02 03:02:26;;;;;;;31.30;19.15;;;;;;;-144.47;100.00;61586.06;5023543;28;20034;-76
2022/03/02 03:04:52;;;;;;;29.95;18.77;;;;;;;-144.47;100.00;61586.06;5025335;28;20037;-77
2022/03/02 03:07:17;;;;;;;32.78;19.92;;;;;;;-144.47;100.00;61586.06;5021951;28;20115;-75
2022/03/02 03:09:43;;;;;;;32.63;21.02;;;;;;;-144.47;100.00;61586.06;5025319;28;20033;-76
2022/03/02 03:12:09;;;;;;;33.33;20.02;;;;;;;-144.47;100.00;61586.06;5022161;28;20034;-75
2022/03/02 03:14:34;;;;;;;32.05;19.35;;;;;;;-144.47;100.00;61586.06;5025944;28;20389;-76
2022/03/02 03:17:00;;;;;;;33.17;19.63;;;;;;;-144.47;100.00;61586.06;5023296;28;20115;-76
2022/03/02 03:19:25;;;;;;;32.30;19.35;;;;;;;-144.47;100.00;61586.06;5023979;28;20029;-75
2022/03/02 03:21:50;;;;;;;34.33;20.05;;;;;;;-144.47;100.00;61586.06;5022635;28;20030;-75
2022/03/02 03:24:16;;;;;;;36.13;19.70;;;;;;;-144.47;100.00;61586.06;5025336;28;20529;-74
2022/03/02 03:26:41;;;;;;;31.92;20.02;;;;;;;-144.47;100.00;61586.06;5025317;28;20097;-75
2022/03/02 03:29:07;;;;;;;37.65;20.20;;;;;;;-144.47;100.00;61586.06;5021814;28;20029;-75
2022/03/02 03:31:32;;;;;;;36.58;19.65;;;;;;;-144.47;100.00;61586.06;5023292;28;20030;-76
2022/03/02 03:33:58;;;;;;;33.33;19.38;;;;;;;-144.47;100.00;61586.06;5023051;28;20048;-75
2022/03/02 03:36:23;;;;;;;32.83;19.88;;;;;;;-144.47;100.00;61586.06;5021569;28;20030;-75
2022/03/02 03:38:50;;;;;;;33.60;19.25;;;;;;;-144.47;100.00;61586.06;5022528;28;20136;-76
2022/03/02 03:41:15;;;;;;;37.85;20.73;;;;;;;-144.47;100.00;61586.06;5021315;28;20398;-76
2022/03/02 03:43:41;;;;;;;30.15;19.33;;;;;;;-144.47;100.00;61586.06;5024358;28;20029;-75
2022/03/02 03:46:06;;;;;;;33.25;19.02;;;;;;;-144.47;100.00;61586.06;5022621;28;20030;-75
2022/03/02 03:48:32;;;;;;;31.77;19.30;;;;;;;-144.47;100.00;61586.06;5022675;28;20128;-75
2022/03/02 03:50:58;;;;;;;32.78;18.63;;;;;;;-144.47;100.00;61586.06;5024474;28;20045;-74
2022/03/02 03:53:23;;;;;;;27.75;18.45;;;;;;;-144.47;100.00;61586.06;5021046;28;20081;-75
2022/03/02 03:55:49;;;;;;;34.95;20.63;;;;;;;-144.47;100.00;61586.06;5024242;28;20042;-75
2022/03/02 03:58:14;;;;;;;41.80;19.75;;;;;;;-144.47;100.00;61586.06;5021061;28;20033;-75
2022/03/02 04:00:41;;;;;;;31.70;19.00;;;;;;;-144.47;100.00;61586.06;5022781;28;20486;-76
2022/03/02 04:03:07;;;;;;;30.40;19.13;;;;;;;-144.47;100.00;61586.06;5021442;28;20029;-75
2022/03/02 04:05:32;;;;;;;30.67;19.85;;;;;;;-144.47;100.00;61586.06;5022232;28;20038;-76
2022/03/02 04:07:58;;;;;;;32.00;19.60;;;;;;;-144.47;100.00;61586.06;5025684;28;20049;-75
2022/03/02 04:10:23;;;;;;;32.53;18.92;;;;;;;-144.47;100.00;61586.06;5021062;28;20385;-75
2022/03/02 04:12:49;;;;;;;35.95;19.65;;;;;;;-144.47;100.00;61586.06;5027659;28;20033;-75
2022/03/02 04:15:14;;;;;;;30.33;18.95;;;;;;;-144.47;100.00;61586.06;5022213;28;20065;-76
2022/03/02 04:17:40;;;;;;;28.85;17.77;;;;;;;-144.47;100.00;61586.06;5020873;28;20034;-76
2022/03/02 04:20:06;;;;;;;31.67;19.20;;;;;;;-144.47;100.00;61586.06;5022415;28;20204;-75
2022/03/02 04:22:32;;;;;;;29.90;18.27;;;;;;;-144.47;100.00;61586.06;5021668;28;20030;-76
2022/03/02 04:24:57;;;;;;;33.67;20.88;;;;;;;-144.47;100.00;61586.06;5020923;28;20088;-75
2022/03/02 04:27:23;;;;;;;31.17;19.92;;;;;;;-144.47;100.00;61586.06;5023436;28;20477;-76
2022/03/02 04:29:49;;;;;;;29.95;19.17;;;;;;;-144.47;100.00;61586.06;5020336;28;20389;-76
2022/03/02 04:32:14;;;;;;;35.72;19.75;;;;;;;-144.47;100.00;61586.06;5018595;28;20025;-74
2022/03/02 04:34:40;;;;;;;31.55;19.05;;;;;;;-144.47;100.00;61586.06;5020678;28;20478;-74
2022/03/02 04:37:06;;;;;;;32.80;18.88;;;;;;;-144.47;100.00;61586.06;5025505;28;20040;-75
2022/03/02 04:39:31;;;;;;;33.80;19.23;;;;;;;-144.47;100.00;61586.06;5020003;28;20069;-77
2022/03/02 04:41:57;;;;;;;30.60;19.73;;;;;;;-144.47;100.00;61586.06;5021216;28;20049;-77
2022/03/02 04:44:22;;;;;;;32.90;18.83;;;;;;;-144.47;100.00;61586.06;5023448;28;20029;-75
2022/03/02 04:46:51;;;;;;;35.58;18.45;;;;;;;-144.47;100.00;61586.06;5019532;28;20046;-76
2022/03/02 04:49:18;;;;;;;32.35;18.75;;;;;;;-144.47;100.00;61586.06;5019947;28;20075;-76
2022/03/02 04:51:48;;;;;;;35.38;20.42;;;;;;;-144.47;100.00;61586.06;5023294;28;20088;-75
2022/03/02 04:56:59;;;;;;;34.85;20.98;;;;;;;-144.47;100.00;61586.06;5020497;28;20038;-76
2022/03/02 04:59:25;;;;;;;32.85;20.75;;;;;;;-144.47;100.00;61586.06;5022392;28;20109;-76
2022/03/02 05:01:51;;;;;;;32.53;19.45;;;;;;;-144.47;100.00;61586.06;5020809;28;20061;-76
2022/03/02 05:04:16;;;;;;;37.92;20.17;;;;;;;-144.47;100.00;61586.06;5024323;28;20029;-77
2022/03/02 05:06:42;;;;;;;31.13;20.10;;;;;;;-144.47;100.00;61586.06;5023023;28;20038;-76
2022/03/02 05:09:07;;;;;;;37.28;21.20;;;;;;;-144.47;100.00;61586.06;5022231;28;20804;-75
2022/03/02 05:11:33;;;;;;;31.85;20.17;;;;;;;-144.47;100.00;61586.06;5021095;28;20427;-74
2022/03/02 05:13:59;;;;;;;42.42;20.90;;;;;;;-144.47;100.00;61586.06;5021276;28;20065;-75
2022/03/02 05:16:25;;;;;;;36.63;19.60;;;;;;;-144.47;100.00;61586.06;5023539;28;20086;-75
2022/03/02 05:18:50;;;;;;;38.35;22.83;;;;;;;-144.47;100.00;61586.06;5022784;28;20109;-75
2022/03/02 05:21:16;;;;;;;41.92;21.52;;;;;;;-144.47;100.00;61586.06;5019978;28;20017;-74
2022/03/02 05:23:41;;;;;;;39.53;22.75;;;;;;;-144.47;100.00;61586.06;5024398;28;20182;-76
2022/03/02 05:26:07;;;;;;;46.33;22.77;;;;;;;-144.47;100.00;61586.06;5022123;28;20062;-75
2022/03/02 05:28:33;;;;;;;34.90;21.10;;;;;;;-144.47;100.00;61586.06;5021024;28;20026;-75
2022/03/02 05:30:59;;;;;;;43.55;22.85;;;;;;;-144.47;100.00;61586.06;5020281;28;20049;-74
2022/03/02 05:33:25;;;;;;;39.65;23.13;;;;;;;-144.47;100.00;61586.06;5022128;28;20025;-75
2022/03/02 05:35:50;;;;;;;40.88;22.63;;;;;;;-144.47;100.00;61586.06;5019131;28;20103;-75
2022/03/02 05:38:16;;;;;;;38.67;22.45;;;;;;;-144.47;100.00;61586.06;5021494;28;20034;-76
2022/03/02 05:40:41;;;;;;;35.70;21.85;;;;;;;-144.47;100.00;61586.06;5018935;28;20034;-76
2022/03/02 05:43:07;;;;;;;48.30;24.00;;;;;;;-144.47;100.00;61586.06;5020599;28;20224;-75
2022/03/02 05:45:32;;;;;;;37.50;21.60;;;;;;;-144.47;100.00;61586.06;5022836;28;20029;-73
2022/03/02 05:47:58;;;;;;;37.38;22.50;;;;;;;-144.47;100.00;61586.06;5028050;28;20045;-75
2022/03/02 05:50:23;;;;;;;43.97;23.42;;;;;;;-144.47;100.00;61586.06;5037983;28;20045;-74
2022/03/02 05:52:49;;;;;;;37.13;22.73;;;;;;;-144.47;100.00;61586.06;5029203;28;20030;-75
2022/03/02 05:55:14;;;;;;;39.83;22.80;;;;;;;-144.47;100.00;61586.06;5036076;28;20037;-75
2022/03/02 05:57:40;;;;;;;32.80;20.05;;;;;;;-144.47;100.00;61586.06;5032510;28;20064;-75
2022/03/02 06:00:07;;;;;;;44.20;21.88;;;;;;;-144.47;100.00;61586.06;5019322;28;20049;-75
2022/03/02 06:02:33;;;;;;;37.67;21.85;;;;;;;-144.47;100.00;61586.06;5016967;28;20036;-76
2022/03/02 06:04:58;;;;;;;41.17;22.05;;;;;;;-144.47;100.00;61586.06;5020716;28;20042;-74
2022/03/02 06:07:24;;;;;;;38.78;21.52;;;;;;;-144.47;100.00;61586.06;4327613;28;10000781;-72
2022/03/02 06:09:50;;;;;;;37.25;21.55;;;;;;;-144.47;100.00;61586.06;5017324;28;20057;-72
2022/03/02 06:12:16;;;;;;;36.30;20.95;;;;;;;-144.47;100.00;61586.06;5014389;28;20056;-73
2022/03/02 06:14:42;;;;;;;39.05;22.30;;;;;;;-144.47;100.00;61586.06;5014864;28;20068;-72
2022/03/02 06:17:09;;;;;;;41.33;23.17;;;;;;;-144.47;100.00;61586.06;5015823;28;20820;-74
2022/03/02 06:19:35;;;;;;;37.85;20.83;;;;;;;-144.47;100.00;61586.06;5015813;28;20473;-73
2022/03/02 06:22:03;;;;;;;35.90;20.52;;;;;;;-144.47;100.00;61586.06;5015474;28;20045;-75
2022/03/02 06:24:30;;;;;;;36.78;21.60;;;;;;;-144.47;100.00;61586.06;5015672;28;20426;-73
2022/03/02 06:26:55;;;;;;;42.28;21.55;;;;;;;-144.47;100.00;61586.06;5038640;28;20486;-74
2022/03/02 06:29:21;;;;;;;42.72;23.60;;;;;;;-144.47;100.00;61586.06;5021395;28;20037;-76
2022/03/02 06:31:47;;;;;;;38.38;21.25;;;;;;;-144.47;100.00;61586.06;5017862;28;20072;-74
2022/03/02 06:34:12;;;;;;;34.40;20.67;;;;;;;-144.47;100.00;61586.06;5020262;28;20132;-75
2022/03/02 06:36:38;;;;;;;34.17;21.25;;;;;;;-144.47;100.00;61586.06;5020058;28;20026;-75
2022/03/02 06:39:04;;;;;;;38.60;22.95;;;;;;;-144.47;100.00;61586.06;5019798;28;20030;-75
2022/03/02 06:41:45;;;;;;;36.72;21.42;;;;;;;-144.47;100.00;61586.06;5018520;28;20094;-74
2022/03/02 06:44:22;;;;;;;34.38;20.75;;;;;;;-144.47;100.00;61586.06;5012450;28;20103;-75
2022/03/02 06:47:00;;;;;;;39.60;20.85;;;;;;;-144.47;100.00;61586.06;5015658;28;20053;-74
2022/03/02 06:49:33;;;;;;;39.40;21.27;;;;;;;-144.47;100.00;61586.06;5016618;28;20040;-75
2022/03/02 06:52:00;;;;;;;38.97;21.30;;;;;;;-144.47;100.00;61586.06;5018008;28;20421;-77
2022/03/02 06:54:31;;;;;;;36.13;22.30;;;;;;;-144.47;100.00;61586.06;5016695;28;20034;-74
2022/03/02 06:57:00;;;;;;;41.05;23.38;;;;;;;-144.47;100.00;61586.06;5018470;28;20033;-75
2022/03/02 06:59:38;;;;;;;42.40;22.30;;;;;;;-144.47;100.00;61586.06;4670634;28;10000381;-73
2022/03/02 07:02:05;;;;;;;38.28;22.13;;;;;;;-144.47;100.00;61586.06;5021724;28;20045;-75
2022/03/02 07:04:37;;;;;;;33.40;21.65;;;;;;;-144.47;100.00;61586.06;5019987;28;20038;-75
2022/03/02 07:07:04;;;;;;;39.72;22.52;;;;;;;-144.47;100.00;61586.06;5021298;28;20133;-75
2022/03/02 07:09:32;;;;;;;36.25;22.65;;;;;;;-144.47;100.00;61586.06;5000312;28;20065;-75
2022/03/02 07:12:00;;;;;;;49.10;24.17;;;;;;;-144.47;100.00;61586.06;5021238;28;20116;-75
2022/03/02 07:14:33;;;;;;;39.80;22.27;;;;;;;-144.47;100.00;61586.06;5020388;28;20026;-74
2022/03/02 07:17:02;;;;;;;42.38;23.70;;;;;;;-144.47;100.00;61586.06;5020400;28;20048;-74
2022/03/02 07:19:28;;;;;;;37.35;21.80;;;;;;;-144.47;100.00;61586.06;5019728;28;20030;-76
2022/03/02 07:21:55;;;;;;;40.03;22.83;;;;;;;-144.47;100.00;61586.06;5021083;28;20088;-75
2022/03/02 07:24:22;;;;;;;43.97;22.67;;;;;;;-144.47;100.00;61586.06;5018293;28;20037;-75
2022/03/02 07:26:55;;;;;;;38.03;22.45;;;;;;;-144.47;100.00;61586.06;5022139;28;20134;-75
2022/03/02 07:29:23;;;;;;;42.78;23.88;;;;;;;-144.47;100.00;61586.06;5018146;28;20113;-74
2022/03/02 07:31:51;;;;;;;46.60;24.83;;;;;;;-144.47;100.00;61586.06;5022697;28;20040;-75
2022/03/02 07:34:18;;;;;;;43.30;24.77;;;;;;;-144.47;100.00;61586.06;5021067;28;20044;-74
2022/03/02 07:36:44;;;;;;;40.25;24.85;;;;;;;-144.47;100.00;61586.06;5024016;28;20069;-75
2022/03/02 07:39:10;;;;;;;45.47;25.45;;;;;;;-144.47;100.00;61586.06;5023812;28;20088;-74
2022/03/02 07:41:36;;;;;;;39.08;24.17;;;;;;;-144.47;100.00;61586.06;5023839;28;20029;-74
2022/03/02 07:44:03;;;;;;;44.45;25.10;;;;;;;-144.47;100.00;61586.06;5023264;28;20026;-76
2022/03/02 07:46:29;;;;;;;43.28;25.17;;;;;;;-144.47;100.00;61586.06;5024395;28;20048;-75
2022/03/02 07:48:56;;;;;;;43.47;24.05;;;;;;;-144.47;100.00;61586.06;5023178;28;20405;-75
2022/03/02 07:51:23;;;;;;;41.65;24.98;;;;;;;-144.47;100.00;61586.06;5020990;28;20026;-73
2022/03/02 07:53:50;;;;;;;44.15;25.25;;;;;;;-144.47;100.00;61586.06;5024599;28;20132;-75
2022/03/02 07:56:18;;;;;;;45.80;26.02;;;;;;;-144.47;100.00;61586.06;5023355;28;20632;-75
2022/03/02 07:58:44;;;;;;;46.55;26.13;;;;;;;-144.47;100.00;61586.06;5021701;28;20071;-75
2022/03/02 08:01:15;;;;;;;46.38;25.63;;;;;;;-144.47;100.00;61586.06;5007672;28;20030;-73
2022/03/02 08:03:43;;;;;;;44.45;26.23;;;;;;;-144.47;100.00;61586.06;5021608;28;20394;-73
2022/03/02 08:06:10;;;;;;;43.90;24.85;;;;;;;-144.47;100.00;61586.06;5017050;28;20112;-72
2022/03/02 08:08:36;;;;;;;43.42;26.65;;;;;;;-144.47;100.00;61586.06;5023127;28;20175;-73
2022/03/02 08:11:03;;;;;;;47.90;26.05;;;;;;;-144.47;100.00;61586.06;5020685;28;20033;-76
2022/03/02 08:13:34;;;;;;;44.67;27.00;;;;;;;-144.47;100.00;61586.06;5020522;28;20061;-75
2022/03/02 08:16:01;;;;;;;48.88;26.38;;;;;;;-144.47;100.00;61586.06;5022083;28;20037;-74
2022/03/02 08:18:27;;;;;;;47.75;26.23;;;;;;;-144.47;100.00;61586.06;5019771;28;20053;-73
2022/03/02 08:20:55;;;;;;;43.80;24.60;;;;;;;-144.47;100.00;61586.06;4325206;28;10000725;-72
2022/03/02 08:23:23;;;;;;;42.92;25.65;;;;;;;-144.47;100.00;61586.06;5016434;28;20339;-73
2022/03/02 08:25:52;;;;;;;41.53;25.45;;;;;;;-144.47;100.00;61586.06;5019493;28;20033;-74
2022/03/02 08:28:20;;;;;;;48.28;25.80;;;;;;;-144.47;100.00;61586.06;5019430;28;20103;-74
2022/03/02 08:30:50;;;;;;;48.67;27.02;;;;;;;-144.47;100.00;61586.06;5017961;28;20056;-73
2022/03/02 08:33:20;;;;;;;43.13;26.05;;;;;;;-144.47;100.00;61586.06;5019723;28;20052;-73
2022/03/02 08:35:49;;;;;;;44.03;26.25;;;;;;;-144.47;100.00;61586.06;5019254;28;20036;-74
2022/03/02 08:38:16;;;;;;;46.22;25.40;;;;;;;-144.47;100.00;61586.06;5024149;28;20030;-73
2022/03/02 08:40:43;;;;;;;43.10;25.60;;;;;;;-144.47;100.00;61586.06;4669932;28;9999767;-72
2022/03/02 08:43:08;;;;;;;40.50;25.98;;;;;;;-144.47;100.00;61586.06;5017343;28;20557;-72
2022/03/02 08:45:34;;;;;;;37.97;23.95;;;;;;;-144.47;100.00;61586.06;5020575;28;20042;-73
2022/03/02 08:48:01;;;;;;;46.63;25.75;;;;;;;-144.47;100.00;61586.06;5024129;28;20398;-74
2022/03/02 08:50:28;;;;;;;37.90;23.85;;;;;;;-144.47;100.00;61586.06;5020478;28;20034;-74
2022/03/02 08:52:56;;;;;;;39.88;24.10;;;;;;;-144.47;100.00;61586.06;5019437;28;20088;-74
2022/03/02 08:55:26;;;;;;;36.33;24.35;;;;;;;-144.47;100.00;61586.06;5025452;28;20036;-75
2022/03/02 08:57:53;;;;;;;;;;;;;;;-144.47;100.00;61586.06;5023709;28;20034;-74
2022/03/02 09:00:19;;;;;;;42.92;23.95;;;;;;;-144.47;100.00;61586.06;5023434;28;20359;-74
2022/03/02 09:02:47;;;;;;;41.30;25.85;;;;;;;-144.47;100.00;61586.06;5020162;28;20370;-74
2022/03/02 09:05:13;;;;;;;44.15;26.15;;;;;;;-144.47;100.00;61586.06;5005346;28;20032;-74
2022/03/02 09:07:39;;;;;;;39.83;25.50;;;;;;;-144.47;100.00;61586.06;5020669;28;20424;-71
2022/03/02 09:10:06;;;;;;;44.17;25.75;;;;;;;-144.47;100.00;61586.06;5021765;28;20060;-75
2022/03/02 09:12:33;;;;;;;39.38;25.95;;;;;;;-144.47;100.00;61586.06;5021967;28;20116;-74
2022/03/02 09:14:58;;;;;;;39.53;25.25;;;;;;;-144.47;100.00;61586.06;5024526;28;20082;-75
2022/03/02 09:17:25;;;;;;;45.08;25.42;;;;;;;-144.47;100.00;61586.06;5023123;28;20038;-74
2022/03/02 09:19:55;;;;;;;44.95;26.92;;;;;;;-144.47;100.00;61586.06;5022365;28;20061;-74
2022/03/02 09:22:23;;;;;;;39.97;25.45;;;;;;;-144.47;100.00;61586.06;5019621;28;20054;-72
2022/03/02 09:24:49;;;;;;;38.25;24.67;;;;;;;-144.47;100.00;61586.06;5023041;28;20044;-72
2022/03/02 09:27:17;;;;;;;35.90;24.17;;;;;;;-144.47;100.00;61586.06;5020168;28;20034;-74
2022/03/02 09:29:46;;;;;;;42.17;24.58;;;;;;;-144.47;100.00;61586.06;5022376;28;20100;-74
2022/03/02 09:32:14;;;;;;;39.20;24.52;;;;;;;-144.47;100.00;61586.06;5019683;28;20036;-74
2022/03/02 09:34:46;;;;;;;40.92;24.52;;;;;;;-144.47;100.00;61586.06;5022330;28;20030;-74
2022/03/02 09:37:16;;;;;;;36.03;23.88;;;;;;;-144.47;100.00;61586.06;5018276;28;20038;-74
2022/03/02 09:39:45;;;;;;;37.10;24.20;;;;;;;-144.47;100.00;61586.06;5021998;28;20175;-75
2022/03/02 09:42:26;;;;;;;40.10;24.05;;;;;;;-144.47;100.00;61586.06;5019592;28;20036;-73
2022/03/02 09:45:01;;;;;;;34.20;23.17;;;;;;;-144.47;100.00;61586.06;5019594;28;20029;-75
2022/03/02 09:47:52;;;;;;;33.90;22.73;;;;;;;-144.47;100.00;61586.06;5022422;28;20045;-74
2022/03/02 09:50:17;;;;;;;;;;;;;;;-144.47;100.00;61586.06;5024584;28;20191;-73
2022/03/02 09:52:45;;;;;;;36.55;22.27;;;;;;;-144.47;100.00;61586.06;5026548;28;20200;-74
2022/03/02 09:55:13;;;;;;;38.47;22.90;;;;;;;-144.47;100.00;61586.06;4674279;28;9999908;-75
2022/03/02 09:57:46;;;;;;;39.33;25.08;;;;;;;-144.47;100.00;61586.06;5019529;28;20096;-74
2022/03/02 10:00:14;;;;;;;37.38;24.63;;;;;;;-144.47;100.00;61586.06;5015635;28;20034;-76
2022/03/02 10:02:48;;;;;;;37.92;24.02;;;;;;;-144.47;100.00;61586.06;5017474;28;20061;-74
2022/03/02 10:05:17;;;;;;;37.95;24.05;;;;;;;-144.47;100.00;61586.06;5014258;28;20042;-75
2022/03/02 10:07:59;;;;;;;41.95;25.50;;;;;;;-144.47;100.00;61586.06;5019268;28;20030;-75
2022/03/02 10:10:28;;;;;;;40.95;24.67;;;;;;;-144.47;100.00;61586.06;5016952;28;20034;-74
2022/03/02 10:12:57;;;;;;;35.38;23.38;;;;;;;-144.47;100.00;61586.06;5016947;28;20047;-75
2022/03/02 10:15:23;;;;;;;40.65;23.92;;;;;;;-144.47;100.00;61586.06;5016774;28;20692;-76
2022/03/02 10:17:53;;;;;;;36.15;23.40;;;;;;;-144.47;100.00;61586.06;5019479;28;20036;-75
2022/03/02 10:20:25;;;;;;;38.17;23.02;;;;;;;-144.47;100.00;61586.06;5016241;28;20103;-76
2022/03/02 10:22:54;;;;;;;42.28;25.15;;;;;;;-144.47;100.00;61586.06;5016007;28;20062;-76
2022/03/02 10:25:27;;;;;;;37.42;23.70;;;;;;;-144.47;100.00;61586.06;5019660;28;20524;-77
2022/03/02 10:28:07;;;;;;;33.90;22.05;;;;;;;-144.47;100.00;61586.06;5016106;28;20053;-77
2022/03/02 10:30:37;;;;;;;32.25;20.25;;;;;;;-144.47;100.00;61586.06;5017595;28;20036;-76
2022/03/02 10:33:24;;;;;;;37.03;20.83;;;;;;;-144.47;100.00;61586.06;5015347;28;20383;-77
2022/03/02 10:36:05;;;;;;;36.08;23.08;;;;;;;-144.47;100.00;61586.06;5016130;28;20033;-77
2022/03/02 10:38:44;;;;;;;29.50;20.55;;;;;;;-144.47;100.00;61586.06;5017533;28;20101;-76
2022/03/02 10:41:10;;;;;;;36.42;21.88;;;;;;;-144.47;100.00;61586.06;5016917;28;20343;-75
2022/03/02 10:43:47;;;;;;;34.88;21.77;;;;;;;-144.47;100.00;61586.06;5016062;28;20034;-76
2022/03/02 10:46:18;;;;;;;32.13;20.85;;;;;;;-144.47;100.00;61586.06;5018536;28;20068;-76
2022/03/02 10:48:48;;;;;;;26.75;19.23;;;;;;;-144.47;100.00;61586.06;5015784;28;20049;-79
2022/03/02 10:51:15;;;;;;;26.60;18.30;;;;;;;-144.47;100.00;61586.06;5018118;28;20049;-77
2022/03/02 10:53:44;;;;;;;26.13;17.52;;;;;;;-144.47;100.00;61586.06;5019894;28;20053;-75
2022/03/02 10:56:13;;;;;;;25.95;17.88;;;;;;;-144.47;100.00;61586.06;5016517;28;20096;-74
2022/03/02 10:58:40;;;;;;;23.88;17.58;;;;;;;-144.47;100.00;61586.06;5015743;28;20079;-74